sensor_id;sensor_type;location;lat;lon;timestamp;pressure;altitude;pressure_sealevel;temperature;humidity
81545;BME280;70990;50.618;7.346;2024-03-08T00:00:11;98256.03;;;2.57;72.72
81545;BME280;70990;50.618;7.346;2024-03-08T00:02:39;98248.91;;;2.72;72.34
81545;BME280;70990;50.618;7.346;2024-03-08T00:05:07;98246.69;;;2.58;72.80
81545;BME280;70990;50.618;7.346;2024-03-08T00:07:34;98241.34;;;2.42;72.95
81545;BME280;70990;50.618;7.346;2024-03-08T00:10:05;98240.75;;;2.53;72.13
81545;BME280;70990;50.618;7.346;2024-03-08T00:12:32;98237.09;;;2.64;72.04
81545;BME280;70990;50.618;7.346;2024-03-08T00:14:58;98242.72;;;2.75;71.76
81545;BME280;70990;50.618;7.346;2024-03-08T00:17:25;98227.41;;;2.67;71.68
81545;BME280;70990;50.618;7.346;2024-03-08T00:19:52;98220.50;;;2.73;71.82
81545;BME280;70990;50.618;7.346;2024-03-08T00:22:18;98229.81;;;2.72;72.30
81545;BME280;70990;50.618;7.346;2024-03-08T00:24:45;98238.66;;;2.65;73.04
81545;BME280;70990;50.618;7.346;2024-03-08T00:27:13;98234.72;;;2.63;72.25
81545;BME280;70990;50.618;7.346;2024-03-08T00:29:40;98235.44;;;2.60;72.09
81545;BME280;70990;50.618;7.346;2024-03-08T00:32:06;98225.97;;;2.54;72.69
81545;BME280;70990;50.618;7.346;2024-03-08T00:34:35;98227.41;;;2.48;72.66
81545;BME280;70990;50.618;7.346;2024-03-08T00:37:03;98231.56;;;2.61;72.90
81545;BME280;70990;50.618;7.346;2024-03-08T00:39:30;98227.25;;;2.40;72.46
81545;BME280;70990;50.618;7.346;2024-03-08T00:41:57;98226.63;;;2.47;73.27
81545;BME280;70990;50.618;7.346;2024-03-08T00:44:23;98207.09;;;2.45;74.00
81545;BME280;70990;50.618;7.346;2024-03-08T00:46:50;98221.22;;;2.31;73.86
81545;BME280;70990;50.618;7.346;2024-03-08T00:49:20;98216.78;;;2.42;72.72
81545;BME280;70990;50.618;7.346;2024-03-08T00:51:46;98214.97;;;2.50;72.84
81545;BME280;70990;50.618;7.346;2024-03-08T00:54:13;98214.91;;;2.27;73.36
81545;BME280;70990;50.618;7.346;2024-03-08T00:56:39;98218.38;;;2.43;73.33
81545;BME280;70990;50.618;7.346;2024-03-08T00:59:07;98208.38;;;2.51;73.53
81545;BME280;70990;50.618;7.346;2024-03-08T01:01:33;98213.03;;;2.51;73.78
81545;BME280;70990;50.618;7.346;2024-03-08T01:04:00;98207.66;;;2.16;73.61
81545;BME280;70990;50.618;7.346;2024-03-08T01:06:26;98202.88;;;2.28;74.37
81545;BME280;70990;50.618;7.346;2024-03-08T01:08:53;98198.28;;;2.32;74.69
81545;BME280;70990;50.618;7.346;2024-03-08T01:11:19;98190.53;;;2.34;74.13
81545;BME280;70990;50.618;7.346;2024-03-08T01:13:46;98185.22;;;2.22;74.25
81545;BME280;70990;50.618;7.346;2024-03-08T01:16:13;98184.44;;;2.22;75.55
81545;BME280;70990;50.618;7.346;2024-03-08T01:18:43;98185.56;;;2.21;74.44
81545;BME280;70990;50.618;7.346;2024-03-08T01:21:10;98181.78;;;1.87;75.36
81545;BME280;70990;50.618;7.346;2024-03-08T01:23:36;98178.63;;;2.23;74.63
81545;BME280;70990;50.618;7.346;2024-03-08T01:26:03;98173.31;;;2.30;74.14
81545;BME280;70990;50.618;7.346;2024-03-08T01:28:30;98167.94;;;2.15;75.05
81545;BME280;70990;50.618;7.346;2024-03-08T01:30:57;98169.31;;;2.24;74.64
81545;BME280;70990;50.618;7.346;2024-03-08T01:33:24;98162.94;;;2.17;74.60
81545;BME280;70990;50.618;7.346;2024-03-08T01:35:52;98159.25;;;2.09;75.67
81545;BME280;70990;50.618;7.346;2024-03-08T01:38:20;98162.03;;;2.13;75.96
81545;BME280;70990;50.618;7.346;2024-03-08T01:40:47;98155.31;;;2.07;75.52
81545;BME280;70990;50.618;7.346;2024-03-08T01:43:20;98151.63;;;2.37;74.65
81545;BME280;70990;50.618;7.346;2024-03-08T01:45:47;98151.66;;;1.99;75.73
81545;BME280;70990;50.618;7.346;2024-03-08T01:48:14;98140.69;;;1.95;75.79
81545;BME280;70990;50.618;7.346;2024-03-08T01:50:42;98143.34;;;2.11;75.07
81545;BME280;70990;50.618;7.346;2024-03-08T01:53:09;98143.91;;;2.01;75.58
81545;BME280;70990;50.618;7.346;2024-03-08T01:55:36;98134.44;;;1.95;75.19
81545;BME280;70990;50.618;7.346;2024-03-08T01:58:04;98134.16;;;2.19;75.68
81545;BME280;70990;50.618;7.346;2024-03-08T02:00:33;98125.13;;;2.15;75.96
81545;BME280;70990;50.618;7.346;2024-03-08T02:03:01;98125.41;;;2.10;74.99
81545;BME280;70990;50.618;7.346;2024-03-08T02:05:28;98125.78;;;2.09;75.68
81545;BME280;70990;50.618;7.346;2024-03-08T02:07:55;98118.59;;;2.00;74.94
81545;BME280;70990;50.618;7.346;2024-03-08T02:10:22;98121.56;;;2.11;75.66
81545;BME280;70990;50.618;7.346;2024-03-08T02:12:50;98117.59;;;2.09;74.97
81545;BME280;70990;50.618;7.346;2024-03-08T02:15:17;98119.47;;;2.05;75.19
81545;BME280;70990;50.618;7.346;2024-03-08T02:17:44;98117.03;;;1.99;75.62
81545;BME280;70990;50.618;7.346;2024-03-08T02:20:11;98125.22;;;1.99;75.15
81545;BME280;70990;50.618;7.346;2024-03-08T02:22:38;98122.34;;;1.92;76.20
81545;BME280;70990;50.618;7.346;2024-03-08T02:25:05;98125.91;;;1.96;75.65
81545;BME280;70990;50.618;7.346;2024-03-08T02:27:32;98109.78;;;1.88;75.81
81545;BME280;70990;50.618;7.346;2024-03-08T02:29:59;98104.31;;;2.07;74.82
81545;BME280;70990;50.618;7.346;2024-03-08T02:32:26;98116.91;;;2.12;74.79
81545;BME280;70990;50.618;7.346;2024-03-08T02:34:56;98109.22;;;1.98;76.12
81545;BME280;70990;50.618;7.346;2024-03-08T02:37:23;98098.97;;;2.11;75.73
81545;BME280;70990;50.618;7.346;2024-03-08T02:39:49;98103.13;;;2.05;75.33
81545;BME280;70990;50.618;7.346;2024-03-08T02:42:16;98097.03;;;2.11;75.48
81545;BME280;70990;50.618;7.346;2024-03-08T02:44:43;98095.16;;;1.96;75.35
81545;BME280;70990;50.618;7.346;2024-03-08T02:47:10;98090.16;;;1.98;75.10
81545;BME280;70990;50.618;7.346;2024-03-08T02:49:37;98090.44;;;2.12;75.74
81545;BME280;70990;50.618;7.346;2024-03-08T02:52:04;98088.44;;;1.90;74.68
81545;BME280;70990;50.618;7.346;2024-03-08T02:54:31;98090.22;;;2.01;75.60
81545;BME280;70990;50.618;7.346;2024-03-08T02:56:57;98086.13;;;1.92;75.08
81545;BME280;70990;50.618;7.346;2024-03-08T02:59:24;98081.41;;;1.89;75.67
81545;BME280;70990;50.618;7.346;2024-03-08T03:01:50;98087.44;;;1.79;75.44
81545;BME280;70990;50.618;7.346;2024-03-08T03:04:17;98094.47;;;1.80;75.25
81545;BME280;70990;50.618;7.346;2024-03-08T03:06:43;98092.44;;;1.96;76.59
81545;BME280;70990;50.618;7.346;2024-03-08T03:09:10;98081.84;;;1.91;75.88
81545;BME280;70990;50.618;7.346;2024-03-08T03:11:37;98081.78;;;1.87;75.61
81545;BME280;70990;50.618;7.346;2024-03-08T03:14:04;98083.31;;;1.88;75.56
81545;BME280;70990;50.618;7.346;2024-03-08T03:16:31;98082.13;;;1.86;75.90
81545;BME280;70990;50.618;7.346;2024-03-08T03:18:57;98076.22;;;2.03;76.32
81545;BME280;70990;50.618;7.346;2024-03-08T03:21:24;98069.78;;;1.73;77.09
81545;BME280;70990;50.618;7.346;2024-03-08T03:23:50;98066.22;;;1.69;76.20
81545;BME280;70990;50.618;7.346;2024-03-08T03:26:17;98069.56;;;1.81;76.42
81545;BME280;70990;50.618;7.346;2024-03-08T03:28:44;98074.09;;;1.74;76.95
81545;BME280;70990;50.618;7.346;2024-03-08T03:31:10;98070.44;;;1.85;76.69
81545;BME280;70990;50.618;7.346;2024-03-08T03:33:37;98063.13;;;1.89;76.94
81545;BME280;70990;50.618;7.346;2024-03-08T03:36:04;98071.78;;;1.76;76.49
81545;BME280;70990;50.618;7.346;2024-03-08T03:38:31;98063.84;;;1.67;77.14
81545;BME280;70990;50.618;7.346;2024-03-08T03:41:00;98067.38;;;1.87;76.81
81545;BME280;70990;50.618;7.346;2024-03-08T03:43:28;98061.91;;;1.68;77.39
81545;BME280;70990;50.618;7.346;2024-03-08T03:45:54;98061.91;;;1.68;77.54
81545;BME280;70990;50.618;7.346;2024-03-08T03:48:21;98056.53;;;1.52;77.05
81545;BME280;70990;50.618;7.346;2024-03-08T03:50:48;98063.22;;;1.74;77.94
81545;BME280;70990;50.618;7.346;2024-03-08T03:53:14;98062.19;;;1.62;77.11
81545;BME280;70990;50.618;7.346;2024-03-08T03:55:41;98058.16;;;1.56;77.87
81545;BME280;70990;50.618;7.346;2024-03-08T03:58:08;98041.63;;;1.65;77.28
81545;BME280;70990;50.618;7.346;2024-03-08T04:00:35;98043.28;;;1.70;77.36
81545;BME280;70990;50.618;7.346;2024-03-08T04:03:02;98051.38;;;1.66;78.33
81545;BME280;70990;50.618;7.346;2024-03-08T04:05:29;98050.78;;;1.57;77.16
81545;BME280;70990;50.618;7.346;2024-03-08T04:07:55;98046.00;;;1.70;77.35
81545;BME280;70990;50.618;7.346;2024-03-08T04:10:22;98044.84;;;1.51;77.04
81545;BME280;70990;50.618;7.346;2024-03-08T04:12:48;98049.75;;;1.81;77.55
81545;BME280;70990;50.618;7.346;2024-03-08T04:15:15;98052.31;;;1.74;76.36
81545;BME280;70990;50.618;7.346;2024-03-08T04:17:42;98041.06;;;1.56;77.21
81545;BME280;70990;50.618;7.346;2024-03-08T04:20:09;98030.09;;;1.52;76.95
81545;BME280;70990;50.618;7.346;2024-03-08T04:22:38;98029.81;;;1.57;77.71
81545;BME280;70990;50.618;7.346;2024-03-08T04:25:06;98027.16;;;1.61;77.21
81545;BME280;70990;50.618;7.346;2024-03-08T04:27:33;98036.97;;;1.66;77.17
81545;BME280;70990;50.618;7.346;2024-03-08T04:30:00;98028.09;;;1.49;77.80
81545;BME280;70990;50.618;7.346;2024-03-08T04:32:27;98031.06;;;1.25;78.46
81545;BME280;70990;50.618;7.346;2024-03-08T04:34:54;98033.97;;;1.51;78.39
81545;BME280;70990;50.618;7.346;2024-03-08T04:37:20;98033.53;;;1.49;78.26
81545;BME280;70990;50.618;7.346;2024-03-08T04:39:47;98032.38;;;1.50;77.62
81545;BME280;70990;50.618;7.346;2024-03-08T04:42:15;98016.84;;;1.51;78.12
81545;BME280;70990;50.618;7.346;2024-03-08T04:44:42;98023.84;;;1.52;78.35
81545;BME280;70990;50.618;7.346;2024-03-08T04:47:10;98025.06;;;1.35;78.03
81545;BME280;70990;50.618;7.346;2024-03-08T04:49:36;98018.34;;;1.48;78.20
81545;BME280;70990;50.618;7.346;2024-03-08T04:52:04;98029.41;;;1.55;79.00
81545;BME280;70990;50.618;7.346;2024-03-08T04:54:33;98016.19;;;1.57;77.61
81545;BME280;70990;50.618;7.346;2024-03-08T04:57:00;98022.56;;;1.27;78.49
81545;BME280;70990;50.618;7.346;2024-03-08T04:59:28;98015.34;;;1.34;78.91
81545;BME280;70990;50.618;7.346;2024-03-08T05:01:55;98013.41;;;1.35;79.22
81545;BME280;70990;50.618;7.346;2024-03-08T05:04:21;98024.63;;;1.14;79.60
81545;BME280;70990;50.618;7.346;2024-03-08T05:06:48;98015.34;;;1.34;79.02
81545;BME280;70990;50.618;7.346;2024-03-08T05:09:14;98011.97;;;1.21;79.26
81545;BME280;70990;50.618;7.346;2024-03-08T05:11:42;98004.94;;;1.20;79.40
81545;BME280;70990;50.618;7.346;2024-03-08T05:14:10;98005.59;;;1.33;79.17
81545;BME280;70990;50.618;7.346;2024-03-08T05:16:37;98005.28;;;1.38;79.12
81545;BME280;70990;50.618;7.346;2024-03-08T05:19:03;98007.59;;;1.36;79.50
81545;BME280;70990;50.618;7.346;2024-03-08T05:21:30;97987.53;;;1.25;78.93
81545;BME280;70990;50.618;7.346;2024-03-08T05:23:57;98006.94;;;1.24;80.06
81545;BME280;70990;50.618;7.346;2024-03-08T05:26:23;97990.19;;;1.21;79.83
81545;BME280;70990;50.618;7.346;2024-03-08T05:28:50;97993.09;;;1.13;79.94
81545;BME280;70990;50.618;7.346;2024-03-08T05:31:20;97990.34;;;0.74;81.61
81545;BME280;70990;50.618;7.346;2024-03-08T05:33:47;97989.06;;;0.88;82.03
81545;BME280;70990;50.618;7.346;2024-03-08T05:36:14;97990.91;;;0.84;81.90
81545;BME280;70990;50.618;7.346;2024-03-08T05:38:41;97991.91;;;1.10;81.41
81545;BME280;70990;50.618;7.346;2024-03-08T05:41:07;97990.09;;;0.99;81.17
81545;BME280;70990;50.618;7.346;2024-03-08T05:43:34;97995.81;;;1.13;81.09
81545;BME280;70990;50.618;7.346;2024-03-08T05:46:00;97993.16;;;0.97;82.12
81545;BME280;70990;50.618;7.346;2024-03-08T05:48:27;97989.72;;;0.81;82.49
81545;BME280;70990;50.618;7.346;2024-03-08T05:50:54;97985.63;;;0.91;81.65
81545;BME280;70990;50.618;7.346;2024-03-08T05:53:20;97990.25;;;1.06;82.38
81545;BME280;70990;50.618;7.346;2024-03-08T05:55:47;97985.63;;;0.91;82.35
81545;BME280;70990;50.618;7.346;2024-03-08T05:58:13;97980.31;;;0.78;82.03
81545;BME280;70990;50.618;7.346;2024-03-08T06:00:40;97985.69;;;0.94;82.95
81545;BME280;70990;50.618;7.346;2024-03-08T06:03:07;97992.88;;;0.67;83.62
81545;BME280;70990;50.618;7.346;2024-03-08T06:05:33;97971.44;;;0.81;83.73
81545;BME280;70990;50.618;7.346;2024-03-08T06:08:00;97973.78;;;0.99;83.20
81545;BME280;70990;50.618;7.346;2024-03-08T06:10:27;97972.50;;;1.12;81.98
81545;BME280;70990;50.618;7.346;2024-03-08T06:12:54;97978.22;;;1.26;82.50
81545;BME280;70990;50.618;7.346;2024-03-08T06:15:20;97971.00;;;1.14;82.69
81545;BME280;70990;50.618;7.346;2024-03-08T06:17:47;97963.06;;;1.06;81.57
81545;BME280;70990;50.618;7.346;2024-03-08T06:20:14;97969.84;;;1.35;81.78
81545;BME280;70990;50.618;7.346;2024-03-08T06:22:41;97975.34;;;1.38;81.05
81545;BME280;70990;50.618;7.346;2024-03-08T06:25:11;97965.50;;;1.11;82.63
81545;BME280;70990;50.618;7.346;2024-03-08T06:27:38;97961.75;;;1.19;82.02
81545;BME280;70990;50.618;7.346;2024-03-08T06:30:06;97956.75;;;1.21;82.70
81545;BME280;70990;50.618;7.346;2024-03-08T06:32:33;97955.91;;;1.36;82.85
81545;BME280;70990;50.618;7.346;2024-03-08T06:35:00;97949.44;;;1.44;82.09
81545;BME280;70990;50.618;7.346;2024-03-08T06:37:26;97953.44;;;1.50;81.92
81545;BME280;70990;50.618;7.346;2024-03-08T06:39:53;97955.00;;;1.51;81.41
81545;BME280;70990;50.618;7.346;2024-03-08T06:42:20;97950.59;;;1.43;81.72
81545;BME280;70990;50.618;7.346;2024-03-08T06:44:46;97942.28;;;1.55;80.84
81545;BME280;70990;50.618;7.346;2024-03-08T06:47:13;97960.72;;;1.66;81.17
81545;BME280;70990;50.618;7.346;2024-03-08T06:49:40;97946.69;;;1.63;81.41
81545;BME280;70990;50.618;7.346;2024-03-08T06:52:06;97937.28;;;1.80;80.57
81545;BME280;70990;50.618;7.346;2024-03-08T06:54:34;97931.44;;;1.82;80.63
81545;BME280;70990;50.618;7.346;2024-03-08T06:57:00;97949.69;;;1.78;81.07
81545;BME280;70990;50.618;7.346;2024-03-08T06:59:27;97948.84;;;1.96;81.11
81545;BME280;70990;50.618;7.346;2024-03-08T07:01:53;97944.84;;;1.90;80.44
81545;BME280;70990;50.618;7.346;2024-03-08T07:04:20;97936.44;;;1.99;80.52
81545;BME280;70990;50.618;7.346;2024-03-08T07:06:47;97932.31;;;1.86;80.67
81545;BME280;70990;50.618;7.346;2024-03-08T07:09:14;97929.06;;;1.99;80.12
81545;BME280;70990;50.618;7.346;2024-03-08T07:11:41;97931.00;;;1.99;80.12
81545;BME280;70990;50.618;7.346;2024-03-08T07:14:10;97939.22;;;2.02;80.57
81545;BME280;70990;50.618;7.346;2024-03-08T07:16:37;97916.91;;;2.20;80.59
81545;BME280;70990;50.618;7.346;2024-03-08T07:19:05;97933.38;;;2.27;80.90
81545;BME280;70990;50.618;7.346;2024-03-08T07:21:32;97930.94;;;2.18;79.03
81545;BME280;70990;50.618;7.346;2024-03-08T07:23:58;97917.97;;;2.12;80.72
81545;BME280;70990;50.618;7.346;2024-03-08T07:26:25;97929.47;;;2.24;80.23
81545;BME280;70990;50.618;7.346;2024-03-08T07:28:55;97931.00;;;2.48;79.59
81545;BME280;70990;50.618;7.346;2024-03-08T07:31:26;97929.47;;;2.51;78.99
81545;BME280;70990;50.618;7.346;2024-03-08T07:33:55;97927.16;;;2.79;78.65
81545;BME280;70990;50.618;7.346;2024-03-08T07:36:21;97921.81;;;2.86;77.90
81545;BME280;70990;50.618;7.346;2024-03-08T07:38:48;97904.59;;;2.82;79.07
81545;BME280;70990;50.618;7.346;2024-03-08T07:41:15;97928.28;;;3.04;77.56
81545;BME280;70990;50.618;7.346;2024-03-08T07:43:41;97921.00;;;3.15;77.75
81545;BME280;70990;50.618;7.346;2024-03-08T07:46:09;97918.03;;;3.28;77.41
81545;BME280;70990;50.618;7.346;2024-03-08T07:48:36;97915.38;;;3.35;77.04
81545;BME280;70990;50.618;7.346;2024-03-08T07:51:03;97905.34;;;3.42;77.11
81545;BME280;70990;50.618;7.346;2024-03-08T07:53:30;97910.19;;;3.56;76.62
81545;BME280;70990;50.618;7.346;2024-03-08T07:55:57;97902.44;;;3.65;75.62
81545;BME280;70990;50.618;7.346;2024-03-08T07:58:23;97901.66;;;3.64;76.05
81545;BME280;70990;50.618;7.346;2024-03-08T08:00:50;97895.38;;;3.60;74.94
81545;BME280;70990;50.618;7.346;2024-03-08T08:03:16;97887.00;;;3.83;75.41
81545;BME280;70990;50.618;7.346;2024-03-08T08:05:43;97890.72;;;3.61;74.45
81545;BME280;70990;50.618;7.346;2024-03-08T08:08:09;97889.31;;;3.81;74.65
81545;BME280;70990;50.618;7.346;2024-03-08T08:10:37;97896.84;;;3.91;74.83
81545;BME280;70990;50.618;7.346;2024-03-08T08:13:04;97889.59;;;4.10;74.22
81545;BME280;70990;50.618;7.346;2024-03-08T08:15:31;97884.13;;;4.13;73.59
81545;BME280;70990;50.618;7.346;2024-03-08T08:17:58;97885.09;;;4.35;74.68
81545;BME280;70990;50.618;7.346;2024-03-08T08:20:25;97876.16;;;4.41;72.57
81545;BME280;70990;50.618;7.346;2024-03-08T08:22:51;97874.75;;;4.65;71.94
81545;BME280;70990;50.618;7.346;2024-03-08T08:25:18;97870.06;;;4.66;72.58
81545;BME280;70990;50.618;7.346;2024-03-08T08:27:44;97872.88;;;4.83;71.19
81545;BME280;70990;50.618;7.346;2024-03-08T08:30:11;97872.13;;;4.86;71.72
81545;BME280;70990;50.618;7.346;2024-03-08T08:32:38;97861.44;;;4.60;70.96
81545;BME280;70990;50.618;7.346;2024-03-08T08:35:06;97857.72;;;5.07;71.67
81545;BME280;70990;50.618;7.346;2024-03-08T08:37:32;97851.09;;;5.05;71.12
81545;BME280;70990;50.618;7.346;2024-03-08T08:39:59;97849.53;;;5.11;70.25
81545;BME280;70990;50.618;7.346;2024-03-08T08:42:25;97847.59;;;5.11;70.93
81545;BME280;70990;50.618;7.346;2024-03-08T08:44:52;97840.16;;;5.12;69.70
81545;BME280;70990;50.618;7.346;2024-03-08T08:47:21;97851.97;;;5.30;70.52
81545;BME280;70990;50.618;7.346;2024-03-08T08:49:48;97824.97;;;5.43;69.80
81545;BME280;70990;50.618;7.346;2024-03-08T08:52:15;97830.84;;;5.52;68.78
81545;BME280;70990;50.618;7.346;2024-03-08T08:54:43;97825.38;;;5.62;68.85
81545;BME280;70990;50.618;7.346;2024-03-08T08:57:10;97820.66;;;5.45;67.36
81545;BME280;70990;50.618;7.346;2024-03-08T08:59:36;97822.28;;;5.60;66.78
81545;BME280;70990;50.618;7.346;2024-03-08T09:02:03;97832.44;;;5.53;67.33
81545;BME280;70990;50.618;7.346;2024-03-08T09:04:30;97816.00;;;5.63;68.01
81545;BME280;70990;50.618;7.346;2024-03-08T09:06:57;97823.06;;;6.00;66.93
81545;BME280;70990;50.618;7.346;2024-03-08T09:09:23;97818.34;;;5.76;65.40
81545;BME280;70990;50.618;7.346;2024-03-08T09:11:50;97820.75;;;6.16;66.32
81545;BME280;70990;50.618;7.346;2024-03-08T09:14:17;97827.00;;;6.13;64.34
81545;BME280;70990;50.618;7.346;2024-03-08T09:16:43;97824.28;;;6.10;62.90
81545;BME280;70990;50.618;7.346;2024-03-08T09:19:10;97824.22;;;6.34;65.27
81545;BME280;70990;50.618;7.346;2024-03-08T09:21:37;97813.66;;;6.33;62.84
81545;BME280;70990;50.618;7.346;2024-03-08T09:24:04;97814.03;;;6.35;63.89
81545;BME280;70990;50.618;7.346;2024-03-08T09:26:30;97818.75;;;5.78;62.16
81545;BME280;70990;50.618;7.346;2024-03-08T09:28:57;97807.44;;;5.97;63.56
81545;BME280;70990;50.618;7.346;2024-03-08T09:31:24;97802.72;;;6.01;63.92
81545;BME280;70990;50.618;7.346;2024-03-08T09:33:50;97801.13;;;5.79;62.56
81545;BME280;70990;50.618;7.346;2024-03-08T09:36:17;97798.78;;;5.84;62.29
81545;BME280;70990;50.618;7.346;2024-03-08T09:38:43;97806.25;;;5.98;62.20
81545;BME280;70990;50.618;7.346;2024-03-08T09:41:10;97804.63;;;6.39;62.90
81545;BME280;70990;50.618;7.346;2024-03-08T09:43:36;97808.19;;;6.08;61.52
81545;BME280;70990;50.618;7.346;2024-03-08T09:46:04;97798.78;;;6.23;61.21
81545;BME280;70990;50.618;7.346;2024-03-08T09:48:30;97802.69;;;6.26;61.68
81545;BME280;70990;50.618;7.346;2024-03-08T09:50:57;97795.63;;;6.42;60.67
81545;BME280;70990;50.618;7.346;2024-03-08T09:53:24;97788.19;;;5.58;62.31
81545;BME280;70990;50.618;7.346;2024-03-08T09:55:50;97787.06;;;5.98;61.16
81545;BME280;70990;50.618;7.346;2024-03-08T09:58:17;97777.25;;;6.04;60.77
81545;BME280;70990;50.618;7.346;2024-03-08T10:00:43;97776.84;;;6.30;61.84
81545;BME280;70990;50.618;7.346;2024-03-08T10:03:10;97756.34;;;6.60;60.88
81545;BME280;70990;50.618;7.346;2024-03-08T10:05:43;97764.63;;;6.49;60.18
81545;BME280;70990;50.618;7.346;2024-03-08T10:08:10;97761.63;;;7.02;61.68
81545;BME280;70990;50.618;7.346;2024-03-08T10:10:37;97760.16;;;7.53;60.68
81545;BME280;70990;50.618;7.346;2024-03-08T10:13:07;97759.50;;;7.35;60.36
81545;BME280;70990;50.618;7.346;2024-03-08T10:15:35;97749.00;;;7.15;60.16
81545;BME280;70990;50.618;7.346;2024-03-08T10:18:04;97752.50;;;7.19;60.41
81545;BME280;70990;50.618;7.346;2024-03-08T10:20:31;97759.16;;;7.25;60.64
81545;BME280;70990;50.618;7.346;2024-03-08T10:22:58;97754.38;;;7.37;58.51
81545;BME280;70990;50.618;7.346;2024-03-08T10:25:36;97749.34;;;7.80;59.59
81545;BME280;70990;50.618;7.346;2024-03-08T10:28:04;97752.44;;;7.85;58.07
81545;BME280;70990;50.618;7.346;2024-03-08T10:30:31;97736.19;;;7.50;58.30
81545;BME280;70990;50.618;7.346;2024-03-08T10:32:57;97738.97;;;7.94;60.20
81545;BME280;70990;50.618;7.346;2024-03-08T10:35:24;97725.38;;;7.28;57.88
81545;BME280;70990;50.618;7.346;2024-03-08T10:37:51;97732.75;;;7.39;56.51
81545;BME280;70990;50.618;7.346;2024-03-08T10:40:19;97744.00;;;7.58;57.36
81545;BME280;70990;50.618;7.346;2024-03-08T10:42:56;97729.56;;;7.44;56.47
81545;BME280;70990;50.618;7.346;2024-03-08T10:45:32;97725.16;;;7.57;57.47
81545;BME280;70990;50.618;7.346;2024-03-08T10:48:08;97731.09;;;7.52;57.44
81545;BME280;70990;50.618;7.346;2024-03-08T10:50:36;97720.78;;;8.07;56.60
81545;BME280;70990;50.618;7.346;2024-03-08T10:53:06;97706.75;;;7.95;54.70
81545;BME280;70990;50.618;7.346;2024-03-08T10:55:33;97726.50;;;7.83;56.00
81545;BME280;70990;50.618;7.346;2024-03-08T10:58:00;97706.66;;;8.43;56.57
81545;BME280;70990;50.618;7.346;2024-03-08T11:00:26;97714.94;;;8.43;54.96
81545;BME280;70990;50.618;7.346;2024-03-08T11:02:54;97700.72;;;8.48;54.65
81545;BME280;70990;50.618;7.346;2024-03-08T11:05:40;97701.28;;;8.32;54.81
81545;BME280;70990;50.618;7.346;2024-03-08T11:11:23;97711.91;;;8.27;53.00
81545;BME280;70990;50.618;7.346;2024-03-08T11:13:50;97690.94;;;8.02;52.79
81545;BME280;70990;50.618;7.346;2024-03-08T11:18:58;97692.53;;;8.41;52.81
81545;BME280;70990;50.618;7.346;2024-03-08T11:21:25;97681.06;;;8.46;53.44
81545;BME280;70990;50.618;7.346;2024-03-08T11:24:07;97692.50;;;9.02;53.79
81545;BME280;70990;50.618;7.346;2024-03-08T11:26:34;97681.34;;;8.85;51.67
81545;BME280;70990;50.618;7.346;2024-03-08T11:32:07;97670.28;;;9.39;53.79
81545;BME280;70990;50.618;7.346;2024-03-08T11:34:35;97668.00;;;9.34;52.42
81545;BME280;70990;50.618;7.346;2024-03-08T11:37:08;97664.59;;;9.50;52.85
81545;BME280;70990;50.618;7.346;2024-03-08T11:39:36;97655.22;;;9.44;51.72
81545;BME280;70990;50.618;7.346;2024-03-08T11:42:03;97666.13;;;9.27;51.53
81545;BME280;70990;50.618;7.346;2024-03-08T11:44:30;97661.53;;;9.44;50.50
81545;BME280;70990;50.618;7.346;2024-03-08T11:46:56;97667.06;;;8.64;48.50
81545;BME280;70990;50.618;7.346;2024-03-08T11:49:23;97658.16;;;9.33;48.94
81545;BME280;70990;50.618;7.346;2024-03-08T11:51:53;97659.44;;;9.28;49.60
81545;BME280;70990;50.618;7.346;2024-03-08T11:54:19;97648.31;;;9.09;49.40
81545;BME280;70990;50.618;7.346;2024-03-08T11:56:46;97648.34;;;9.32;50.19
81545;BME280;70990;50.618;7.346;2024-03-08T11:59:12;97645.03;;;9.17;49.00
81545;BME280;70990;50.618;7.346;2024-03-08T12:01:39;97636.72;;;9.21;50.07
81545;BME280;70990;50.618;7.346;2024-03-08T12:04:05;97637.31;;;9.79;48.66
81545;BME280;70990;50.618;7.346;2024-03-08T12:06:39;97630.81;;;9.89;49.10
81545;BME280;70990;50.618;7.346;2024-03-08T12:09:13;97643.66;;;9.76;47.24
81545;BME280;70990;50.618;7.346;2024-03-08T12:11:39;97629.88;;;9.52;46.96
81545;BME280;70990;50.618;7.346;2024-03-08T12:14:06;97616.97;;;9.69;47.59
81545;BME280;70990;50.618;7.346;2024-03-08T12:16:33;97620.69;;;10.02;47.41
81545;BME280;70990;50.618;7.346;2024-03-08T12:18:59;97621.94;;;10.40;46.82
81545;BME280;70990;50.618;7.346;2024-03-08T12:21:27;97607.13;;;10.31;47.73
81545;BME280;70990;50.618;7.346;2024-03-08T12:24:07;97614.53;;;10.14;47.32
81545;BME280;70990;50.618;7.346;2024-03-08T12:26:35;97613.91;;;10.46;46.71
81545;BME280;70990;50.618;7.346;2024-03-08T12:29:24;97613.97;;;10.03;44.94
81545;BME280;70990;50.618;7.346;2024-03-08T12:31:52;97596.50;;;10.09;46.92
81545;BME280;70990;50.618;7.346;2024-03-08T12:34:19;97606.06;;;10.44;44.49
81545;BME280;70990;50.618;7.346;2024-03-08T12:36:46;97582.72;;;10.65;44.39
81545;BME280;70990;50.618;7.346;2024-03-08T12:39:16;97599.44;;;10.22;45.35
81545;BME280;70990;50.618;7.346;2024-03-08T12:41:43;97590.00;;;11.08;46.61
81545;BME280;70990;50.618;7.346;2024-03-08T12:44:10;97593.25;;;10.34;43.95
81545;BME280;70990;50.618;7.346;2024-03-08T12:46:37;97587.84;;;10.83;44.63
81545;BME280;70990;50.618;7.346;2024-03-08T12:49:04;97573.56;;;10.68;44.71
81545;BME280;70990;50.618;7.346;2024-03-08T12:51:31;97585.25;;;11.08;44.86
81545;BME280;70990;50.618;7.346;2024-03-08T12:53:57;97583.09;;;11.16;45.22
81545;BME280;70990;50.618;7.346;2024-03-08T12:56:34;97572.56;;;11.11;44.45
81545;BME280;70990;50.618;7.346;2024-03-08T12:59:01;97579.38;;;11.39;45.31
81545;BME280;70990;50.618;7.346;2024-03-08T13:01:28;97571.94;;;10.71;44.96
81545;BME280;70990;50.618;7.346;2024-03-08T13:03:57;97582.25;;;9.71;45.60
81545;BME280;70990;50.618;7.346;2024-03-08T13:06:24;97582.72;;;10.81;45.03
81545;BME280;70990;50.618;7.346;2024-03-08T13:08:51;97569.00;;;10.78;43.74
81545;BME280;70990;50.618;7.346;2024-03-08T13:11:19;97565.38;;;11.13;46.01
81545;BME280;70990;50.618;7.346;2024-03-08T13:13:46;97554.53;;;11.51;43.43
81545;BME280;70990;50.618;7.346;2024-03-08T13:16:13;97546.41;;;11.89;44.89
81545;BME280;70990;50.618;7.346;2024-03-08T13:18:43;97546.66;;;11.95;46.10